createdAt,value
2023-04-23T00:01:59.446Z,12.48
2023-04-23T00:04:28.999Z,12.72
2023-04-23T00:06:56.027Z,12.72
2023-04-23T00:09:24.007Z,12.85
2023-04-23T00:11:51.016Z,12.54
2023-04-23T00:14:17.731Z,12.57
2023-04-23T00:16:44.869Z,12.29
2023-04-23T00:19:11.750Z,12.36
2023-04-23T00:21:38.342Z,12.39
2023-04-23T00:24:05.329Z,11.89
2023-04-23T00:26:32.088Z,10.96
2023-04-23T00:28:58.732Z,10.67
2023-04-23T00:31:27.265Z,10.78
2023-04-23T00:33:54.235Z,11.21
2023-04-23T00:36:20.840Z,11.52
2023-04-23T00:38:48.121Z,11.72
2023-04-23T00:41:15.378Z,11.70
2023-04-23T00:43:42.100Z,11.77
2023-04-23T00:46:09.140Z,11.98
2023-04-23T00:48:36.431Z,12.07
2023-04-23T00:51:06.726Z,12.07
2023-04-23T00:53:34.120Z,12.09
2023-04-23T00:56:02.267Z,12.25
2023-04-23T00:58:29.981Z,12.28
2023-04-23T01:00:57.932Z,12.19
2023-04-23T01:03:27.049Z,12.14
2023-04-23T01:05:53.960Z,12.27
2023-04-23T01:08:23.618Z,12.17
2023-04-23T01:10:50.878Z,12.25
2023-04-23T01:13:17.738Z,12.29
2023-04-23T01:15:45.384Z,12.48
2023-04-23T01:18:12.882Z,12.51
2023-04-23T01:20:39.791Z,12.34
2023-04-23T01:23:07.186Z,12.53
2023-04-23T01:25:34.656Z,12.63
2023-04-23T01:28:01.695Z,12.67
2023-04-23T01:30:29.044Z,12.51
2023-04-23T01:32:56.674Z,12.61
2023-04-23T01:35:24.420Z,12.65
2023-04-23T01:37:54.825Z,12.69
2023-04-23T01:40:21.854Z,12.50
2023-04-23T01:42:49.187Z,12.62
2023-04-23T01:45:17.695Z,12.61
2023-04-23T01:47:44.488Z,12.71
2023-04-23T01:50:11.391Z,12.70
2023-04-23T01:52:38.108Z,12.83
2023-04-23T01:55:05.362Z,12.87
2023-04-23T01:57:32.617Z,12.91
2023-04-23T02:00:08.288Z,12.74
2023-04-23T02:02:35.760Z,12.87
2023-04-23T02:05:04.777Z,12.88
2023-04-23T02:07:32.240Z,12.86
2023-04-23T02:09:58.964Z,12.94
2023-04-23T02:12:26.275Z,12.94
2023-04-23T02:14:53.978Z,13.00
2023-04-23T02:17:22.979Z,13.09
2023-04-23T02:19:50.075Z,13.15
2023-04-23T02:22:18.142Z,13.13
2023-04-23T02:24:44.787Z,12.96
2023-04-23T02:27:11.490Z,13.06
2023-04-23T02:29:38.217Z,13.15
2023-04-23T02:32:05.109Z,13.04
2023-04-23T02:34:31.740Z,13.05
2023-04-23T02:36:58.663Z,13.03
2023-04-23T02:39:25.672Z,13.07
2023-04-23T02:41:52.336Z,13.17
2023-04-23T02:44:18.953Z,13.06
2023-04-23T02:46:46.314Z,13.17
2023-04-23T02:49:13.948Z,13.14
2023-04-23T02:51:40.681Z,13.06
2023-04-23T02:54:07.616Z,13.04
2023-04-23T02:56:34.233Z,13.17
2023-04-23T02:59:01.531Z,13.23
2023-04-23T03:01:28.267Z,13.16
2023-04-23T03:03:55.548Z,13.18
2023-04-23T03:06:22.400Z,13.23
2023-04-23T03:08:48.980Z,13.22
2023-04-23T03:11:15.618Z,13.19
2023-04-23T03:13:42.362Z,13.15
2023-04-23T03:16:09.277Z,13.11
2023-04-23T03:18:35.907Z,13.06
2023-04-23T03:21:02.489Z,13.04
2023-04-23T03:23:29.745Z,13.06
2023-04-23T03:25:56.332Z,12.81
2023-04-23T03:28:23.030Z,12.75
2023-04-23T03:30:49.813Z,12.83
2023-04-23T03:33:16.522Z,12.97
2023-04-23T03:35:43.260Z,12.90
2023-04-23T03:38:09.921Z,12.93
2023-04-23T03:40:36.560Z,12.89
2023-04-23T03:43:03.191Z,12.66
2023-04-23T03:45:31.258Z,12.68
2023-04-23T03:47:57.876Z,12.74
2023-04-23T03:50:24.509Z,12.67
2023-04-23T03:52:52.713Z,12.72
2023-04-23T03:55:20.697Z,12.70
2023-04-23T03:57:47.309Z,12.64
2023-04-23T04:00:14.749Z,12.72
2023-04-23T04:02:41.617Z,12.71
2023-04-23T04:05:10.228Z,12.33
2023-04-23T04:07:37.367Z,12.21
2023-04-23T04:10:05.928Z,12.24
2023-04-23T04:12:32.610Z,12.38
2023-04-23T04:14:59.484Z,12.45
2023-04-23T04:17:26.229Z,12.43
2023-04-23T04:19:52.902Z,12.14
2023-04-23T04:22:19.560Z,12.23
2023-04-23T04:24:47.686Z,12.13
2023-04-23T04:27:14.885Z,12.16
2023-04-23T04:29:41.530Z,12.06
2023-04-23T04:32:09.631Z,11.70
2023-04-23T04:34:38.445Z,12.00
2023-04-23T04:37:05.607Z,11.80
2023-04-23T04:39:32.242Z,11.87
2023-04-23T04:41:59.974Z,12.08
2023-04-23T04:44:26.610Z,12.08
2023-04-23T04:46:54.010Z,12.18
2023-04-23T04:49:21.894Z,11.95
2023-04-23T04:51:48.609Z,11.94
2023-04-23T04:54:15.466Z,11.92
2023-04-23T04:56:42.100Z,11.73
2023-04-23T04:59:08.728Z,11.73
2023-04-23T05:01:37.238Z,11.90
2023-04-23T05:04:04.224Z,11.98
2023-04-23T05:06:32.422Z,12.17
2023-04-23T05:08:59.250Z,12.26
2023-04-23T05:11:26.016Z,12.35
2023-04-23T05:13:52.688Z,12.44
2023-04-23T05:16:19.547Z,12.41
2023-04-23T05:18:46.718Z,12.46
2023-04-23T05:21:14.440Z,12.41
2023-04-23T05:23:41.082Z,12.61
2023-04-23T05:26:07.803Z,12.86
2023-04-23T05:28:34.709Z,13.02
2023-04-23T05:31:01.632Z,12.82
2023-04-23T05:33:33.385Z,12.93
2023-04-23T05:36:03.093Z,12.71
2023-04-23T05:38:29.851Z,12.64
2023-04-23T05:40:56.530Z,12.58
2023-04-23T05:43:23.161Z,12.64
2023-04-23T05:45:49.803Z,12.75
2023-04-23T05:48:16.473Z,12.88
2023-04-23T05:50:43.325Z,13.13
2023-04-23T05:53:10.007Z,13.13
2023-04-23T05:55:36.758Z,13.28
2023-04-23T05:58:03.374Z,13.41
2023-04-23T06:00:30.126Z,13.63
2023-04-23T06:02:56.860Z,13.79
2023-04-23T06:05:23.873Z,13.75
2023-04-23T06:07:50.783Z,13.73
2023-04-23T06:10:17.421Z,13.74
2023-04-23T06:12:44.036Z,13.64
2023-04-23T06:15:11.482Z,13.93
2023-04-23T06:17:38.748Z,14.18
2023-04-23T06:20:06.498Z,14.32
2023-04-23T06:22:33.423Z,14.42
2023-04-23T06:25:00.192Z,14.68
2023-04-23T06:27:27.259Z,14.85
2023-04-23T06:29:54.057Z,15.10
2023-04-23T06:32:21.607Z,15.18
2023-04-23T06:35:00.339Z,15.35
2023-04-23T06:37:29.761Z,15.42
2023-04-23T06:39:56.744Z,15.31
2023-04-23T06:42:23.615Z,15.23
2023-04-23T06:44:51.964Z,15.47
2023-04-23T06:47:19.728Z,15.41
2023-04-23T06:49:46.533Z,15.55
2023-04-23T06:52:13.265Z,15.66
2023-04-23T06:54:40.161Z,16.00
2023-04-23T06:57:07.157Z,16.17
2023-04-23T06:59:33.815Z,15.97
2023-04-23T07:02:01.064Z,16.38
2023-04-23T07:04:27.765Z,16.56
2023-04-23T07:06:55.124Z,16.60
2023-04-23T07:09:21.884Z,16.44
2023-04-23T07:11:48.557Z,16.64
2023-04-23T07:14:15.200Z,16.88
2023-04-23T07:16:41.864Z,17.10
2023-04-23T07:19:08.517Z,17.16
2023-04-23T07:21:35.934Z,17.05
2023-04-23T07:24:08.627Z,17.24
2023-04-23T07:26:36.198Z,17.10
2023-04-23T07:29:04.574Z,17.30
2023-04-23T07:31:31.218Z,17.47
2023-04-23T07:33:57.976Z,17.27
2023-04-23T07:36:24.699Z,17.69
2023-04-23T07:38:51.315Z,18.07
2023-04-23T07:41:18.511Z,18.06
2023-04-23T07:43:45.244Z,18.03
2023-04-23T07:46:12.189Z,18.11
2023-04-23T07:48:38.883Z,17.96
2023-04-23T07:51:06.959Z,18.08
2023-04-23T07:53:33.821Z,18.47
2023-04-23T07:56:01.039Z,18.32
2023-04-23T07:58:27.713Z,18.19
2023-04-23T08:00:54.421Z,18.45
2023-04-23T08:03:21.274Z,18.48
2023-04-23T08:05:48.211Z,18.35
2023-04-23T08:08:14.925Z,18.58
2023-04-23T08:10:41.940Z,18.66
2023-04-23T08:13:08.923Z,18.61
2023-04-23T08:15:35.868Z,18.74
2023-04-23T08:18:04.262Z,18.77
2023-04-23T08:20:32.254Z,18.86
2023-04-23T08:22:59.068Z,18.84
2023-04-23T08:25:26.062Z,18.98
2023-04-23T08:27:52.818Z,19.14
2023-04-23T08:30:19.623Z,19.41
2023-04-23T08:32:49.693Z,19.46
2023-04-23T08:35:16.388Z,19.68
2023-04-23T08:37:42.982Z,19.83
2023-04-23T08:40:10.068Z,19.71
2023-04-23T08:42:46.465Z,19.71
2023-04-23T08:45:13.971Z,19.57
2023-04-23T08:47:45.003Z,19.61
2023-04-23T08:50:14.153Z,19.47
2023-04-23T08:52:43.036Z,19.60
2023-04-23T08:55:10.839Z,19.66
2023-04-23T08:57:40.280Z,19.65
2023-04-23T09:00:11.752Z,19.62
2023-04-23T09:02:41.752Z,19.51
2023-04-23T09:05:09.374Z,19.54
2023-04-23T09:07:36.782Z,19.45
2023-04-23T09:10:06.053Z,19.55
2023-04-23T09:12:35.921Z,19.52
2023-04-23T09:15:10.479Z,19.55
2023-04-23T09:17:44.128Z,19.68
2023-04-23T09:20:12.540Z,19.61
2023-04-23T09:22:47.333Z,19.51
2023-04-23T09:25:17.497Z,19.44
2023-04-23T09:27:45.123Z,19.32
2023-04-23T09:30:12.341Z,19.41
2023-04-23T09:32:41.573Z,19.37
2023-04-23T09:35:10.669Z,19.40
2023-04-23T09:37:37.572Z,19.51
2023-04-23T09:40:08.824Z,19.37
2023-04-23T09:42:36.715Z,19.51
2023-04-23T09:45:06.432Z,19.52
2023-04-23T09:47:53.891Z,19.54
2023-04-23T09:50:32.500Z,19.42
2023-04-23T09:52:59.123Z,19.43
2023-04-23T09:55:39.578Z,19.34
2023-04-23T09:58:10.962Z,19.10
2023-04-23T10:00:39.083Z,19.23
2023-04-23T10:03:10.096Z,19.14
2023-04-23T10:08:13.962Z,19.23
2023-04-23T10:10:56.784Z,19.22
2023-04-23T10:13:28.491Z,19.20
2023-04-23T10:15:59.102Z,19.29
2023-04-23T10:18:33.074Z,19.46
2023-04-23T10:21:02.670Z,19.56
2023-04-23T10:23:30.965Z,19.64
2023-04-23T10:25:59.577Z,19.74
2023-04-23T10:28:32.006Z,19.91
2023-04-23T10:30:59.964Z,20.06
2023-04-23T10:33:30.857Z,20.13
2023-04-23T10:36:03.010Z,20.27
2023-04-23T10:38:30.327Z,20.45
2023-04-23T10:40:59.128Z,20.48
2023-04-23T10:43:26.318Z,20.63
2023-04-23T10:45:53.885Z,20.65
2023-04-23T10:48:20.940Z,20.77
2023-04-23T10:51:00.293Z,20.82
2023-04-23T10:53:32.463Z,20.87
2023-04-23T10:56:07.732Z,20.93
2023-04-23T10:58:54.827Z,21.39
2023-04-23T11:01:25.549Z,21.57
2023-04-23T11:03:52.548Z,21.55
2023-04-23T11:06:43.461Z,21.75
2023-04-23T11:09:30.753Z,21.84
2023-04-23T11:11:58.206Z,22.11
2023-04-23T11:14:46.720Z,22.13
2023-04-23T11:17:15.972Z,21.72
2023-04-23T11:20:07.181Z,22.22
2023-04-23T11:22:40.086Z,22.56
2023-04-23T11:25:10.802Z,22.95
2023-04-23T11:27:44.742Z,23.06
2023-04-23T11:30:37.849Z,23.36
2023-04-23T11:33:05.629Z,23.43
2023-04-23T11:35:40.086Z,23.43
2023-04-23T11:38:10.449Z,23.65
2023-04-23T11:40:37.351Z,23.80
2023-04-23T11:43:04.437Z,23.88
2023-04-23T11:45:31.127Z,23.84
2023-04-23T11:48:00.892Z,23.72
2023-04-23T11:50:33.356Z,23.84
2023-04-23T11:53:09.312Z,23.84
2023-04-23T11:55:36.181Z,24.12
2023-04-23T11:58:03.528Z,24.25
2023-04-23T12:00:30.405Z,24.35
2023-04-23T12:03:02.434Z,24.64
2023-04-23T12:05:33.850Z,24.96
2023-04-23T12:08:11.749Z,25.02
2023-04-23T12:10:46.779Z,24.83
2023-04-23T12:13:15.554Z,25.20
2023-04-23T12:16:02.603Z,25.26
2023-04-23T12:18:44.215Z,25.13
2023-04-23T12:21:14.800Z,25.51
2023-04-23T12:23:45.078Z,25.71
2023-04-23T12:26:16.023Z,25.73
2023-04-23T12:28:47.399Z,25.82
2023-04-23T12:31:28.972Z,26.04
2023-04-23T12:34:08.648Z,26.06
2023-04-23T12:36:37.097Z,26.42
2023-04-23T12:39:31.935Z,26.50
2023-04-23T12:42:02.807Z,26.51
2023-04-23T12:44:29.751Z,26.37
2023-04-23T12:47:03.781Z,25.62
2023-04-23T12:49:31.469Z,24.93
2023-04-23T12:52:03.406Z,25.08
2023-04-23T12:54:32.639Z,25.23
2023-04-23T12:57:02.799Z,25.85
2023-04-23T12:59:32.813Z,26.20
2023-04-23T13:02:02.462Z,26.60
2023-04-23T13:04:30.640Z,27.02
2023-04-23T13:06:57.268Z,26.99
2023-04-23T13:09:26.868Z,27.08
2023-04-23T13:11:54.474Z,26.96
2023-04-23T13:14:21.716Z,26.94
2023-04-23T13:16:49.055Z,26.93
2023-04-23T13:19:17.517Z,26.98
2023-04-23T13:21:44.900Z,27.04
2023-04-23T13:24:11.931Z,27.11
2023-04-23T13:26:38.736Z,27.08
2023-04-23T13:29:06.180Z,26.75
2023-04-23T13:31:33.222Z,26.94
2023-04-23T13:34:01.585Z,26.82
2023-04-23T13:36:28.231Z,27.16
2023-04-23T13:38:54.956Z,27.09
2023-04-23T13:41:21.714Z,27.45
2023-04-23T13:43:48.350Z,27.68
2023-04-23T13:46:15.047Z,27.40
2023-04-23T13:48:41.795Z,27.32
2023-04-23T13:51:17.965Z,27.46
2023-04-23T13:53:53.241Z,27.26
2023-04-23T13:56:19.967Z,27.29
2023-04-23T13:58:48.403Z,27.10
2023-04-23T14:01:16.093Z,27.20
2023-04-23T14:03:42.781Z,27.04
2023-04-23T14:06:09.454Z,27.07
2023-04-23T14:08:36.926Z,26.84
2023-04-23T14:11:04.542Z,26.51
2023-04-23T14:13:32.486Z,26.42
2023-04-23T14:16:02.030Z,25.88
2023-04-23T14:18:30.408Z,25.91
2023-04-23T14:20:57.206Z,25.96
2023-04-23T14:23:23.772Z,25.63
2023-04-23T14:26:13.379Z,25.47
2023-04-23T14:28:45.302Z,25.38
2023-04-23T14:31:12.023Z,25.32
2023-04-23T14:33:38.700Z,25.46
2023-04-23T14:36:05.857Z,25.56
2023-04-23T14:38:32.509Z,25.44
2023-04-23T14:40:59.142Z,25.43
2023-04-23T14:43:25.921Z,25.35
2023-04-23T14:45:52.618Z,25.26
2023-04-23T14:48:19.312Z,25.40
2023-04-23T14:50:46.089Z,25.19
2023-04-23T14:53:12.852Z,25.38
2023-04-23T14:55:42.856Z,25.32
2023-04-23T14:58:09.580Z,25.36
2023-04-23T15:00:36.281Z,25.51
2023-04-23T15:03:08.415Z,25.60
2023-04-23T15:05:35.246Z,25.69
2023-04-23T15:08:01.889Z,25.56
2023-04-23T15:10:28.514Z,25.43
2023-04-23T15:13:03.532Z,25.40
2023-04-23T15:15:45.406Z,25.35
2023-04-23T15:18:14.456Z,25.13
2023-04-23T15:20:42.104Z,25.14
2023-04-23T15:23:09.539Z,25.22
2023-04-23T15:25:36.990Z,25.17
2023-04-23T15:28:04.069Z,25.06
2023-04-23T15:30:30.672Z,25.03
2023-04-23T15:32:57.615Z,25.10
2023-04-23T15:35:26.075Z,25.09
2023-04-23T15:37:53.499Z,24.97
2023-04-23T15:40:20.163Z,24.79
2023-04-23T15:42:47.391Z,24.83
2023-04-23T15:45:14.137Z,24.83
2023-04-23T15:47:42.174Z,24.81
2023-04-23T15:50:10.321Z,24.71
2023-04-23T15:52:37.913Z,24.77
2023-04-23T15:55:05.690Z,24.66
2023-04-23T15:57:32.336Z,24.76
2023-04-23T15:59:59.176Z,24.52
2023-04-23T16:02:26.171Z,24.33
2023-04-23T16:04:52.974Z,24.38
2023-04-23T16:07:19.699Z,24.24
2023-04-23T16:09:46.384Z,24.08
2023-04-23T16:12:13.088Z,24.10
2023-04-23T16:14:40.490Z,24.15
2023-04-23T16:17:07.276Z,24.14
2023-04-23T16:19:34.074Z,24.05
2023-04-23T16:22:00.706Z,24.09
2023-04-23T16:24:27.343Z,24.06
2023-04-23T16:26:54.014Z,23.99
2023-04-23T16:29:23.031Z,23.82
2023-04-23T16:31:49.947Z,23.89
2023-04-23T16:34:16.749Z,24.00
2023-04-23T16:36:43.522Z,24.08
2023-04-23T16:39:11.212Z,23.99
2023-04-23T16:41:38.208Z,23.94
2023-04-23T16:44:04.951Z,23.95
2023-04-23T16:46:32.096Z,23.78
2023-04-23T16:48:59.485Z,23.83
2023-04-23T16:51:26.975Z,23.66
2023-04-23T16:53:53.876Z,23.53
2023-04-23T16:56:21.175Z,23.54
2023-04-23T16:58:47.972Z,23.42
2023-04-23T17:01:15.672Z,23.38
2023-04-23T17:03:42.712Z,23.46
2023-04-23T17:06:20.795Z,23.26
2023-04-23T17:08:47.489Z,23.16
2023-04-23T17:11:14.185Z,22.96
2023-04-23T17:13:43.548Z,23.07
2023-04-23T17:16:10.608Z,22.83
2023-04-23T17:18:37.303Z,22.72
2023-04-23T17:21:04.029Z,22.50
2023-04-23T17:23:30.650Z,22.44
2023-04-23T17:25:57.236Z,22.39
2023-04-23T17:28:23.918Z,22.25
2023-04-23T17:30:50.795Z,22.22
2023-04-23T17:33:18.081Z,22.09
2023-04-23T17:35:44.927Z,22.14
2023-04-23T17:38:12.659Z,21.99
2023-04-23T17:40:39.553Z,21.80
2023-04-23T17:43:06.761Z,21.74
2023-04-23T17:45:33.380Z,21.63
2023-04-23T17:48:00.206Z,21.78
2023-04-23T17:50:28.380Z,21.37
2023-04-23T17:52:55.374Z,21.44
2023-04-23T17:55:22.108Z,21.43
2023-04-23T17:57:49.085Z,21.06
2023-04-23T18:00:17.698Z,21.07
2023-04-23T18:02:45.984Z,20.88
2023-04-23T18:05:14.623Z,20.96
2023-04-23T18:07:42.946Z,20.97
2023-04-23T18:10:12.157Z,21.10
2023-04-23T18:12:39.614Z,20.94
2023-04-23T18:15:06.873Z,20.97
2023-04-23T18:17:33.530Z,20.74
2023-04-23T18:20:01.121Z,20.48
2023-04-23T18:22:27.789Z,20.39
2023-04-23T18:24:54.980Z,20.27
2023-04-23T18:27:21.591Z,20.40
2023-04-23T18:29:48.216Z,20.46
2023-04-23T18:32:27.623Z,20.62
2023-04-23T18:34:58.012Z,20.51
2023-04-23T18:37:42.291Z,20.52
2023-04-23T18:40:10.116Z,20.39
2023-04-23T18:42:36.853Z,20.30
2023-04-23T18:45:04.441Z,20.48
2023-04-23T18:47:36.924Z,20.48
2023-04-23T18:50:09.424Z,20.38
2023-04-23T18:52:36.760Z,20.19
2023-04-23T18:55:03.482Z,20.27
2023-04-23T18:57:30.096Z,20.27
2023-04-23T18:59:56.792Z,20.10
2023-04-23T19:02:34.489Z,20.05
2023-04-23T19:05:02.902Z,20.05
2023-04-23T19:07:29.592Z,20.00
2023-04-23T19:09:56.252Z,19.95
2023-04-23T19:12:22.863Z,19.48
2023-04-23T19:14:49.451Z,19.18
2023-04-23T19:17:18.493Z,18.90
2023-04-23T19:19:45.613Z,18.95
2023-04-23T19:22:12.230Z,19.09
2023-04-23T19:24:38.831Z,19.07
2023-04-23T19:27:07.159Z,19.04
2023-04-23T19:29:33.774Z,18.54
2023-04-23T19:32:00.421Z,18.40
2023-04-23T19:34:27.306Z,18.15
2023-04-23T19:36:53.929Z,18.28
2023-04-23T19:39:23.260Z,18.33
2023-04-23T19:41:49.901Z,18.41
2023-04-23T19:44:16.507Z,18.27
2023-04-23T19:46:43.158Z,18.25
2023-04-23T19:49:09.828Z,18.07
2023-04-23T19:51:38.183Z,18.33
2023-04-23T19:54:05.356Z,18.36
2023-04-23T19:56:32.050Z,18.04
2023-04-23T19:58:58.702Z,18.15
2023-04-23T20:01:28.167Z,18.19
2023-04-23T20:03:55.739Z,18.00
2023-04-23T20:06:22.428Z,17.84
2023-04-23T20:09:07.779Z,17.51
2023-04-23T20:11:36.021Z,16.86
2023-04-23T20:14:03.815Z,16.66
2023-04-23T20:16:30.698Z,16.45
2023-04-23T20:18:57.795Z,16.49
2023-04-23T20:21:24.705Z,16.49
2023-04-23T20:23:51.430Z,16.36
2023-04-23T20:26:19.306Z,16.21
2023-04-23T20:28:48.267Z,15.85
2023-04-23T20:31:15.603Z,15.79
2023-04-23T20:33:42.227Z,15.44
2023-04-23T20:36:10.877Z,15.56
2023-04-23T20:38:39.037Z,15.37
2023-04-23T20:41:06.090Z,15.40
2023-04-23T20:43:34.374Z,15.25
2023-04-23T20:46:01.693Z,15.35
2023-04-23T20:48:30.026Z,15.43
2023-04-23T20:50:57.917Z,15.54
2023-04-23T20:53:24.589Z,15.79
2023-04-23T20:55:51.412Z,15.82
2023-04-23T20:58:18.061Z,16.00
2023-04-23T21:00:44.685Z,16.07
2023-04-23T21:03:11.967Z,16.17
2023-04-23T21:05:40.515Z,15.89
2023-04-23T21:08:07.964Z,15.90
2023-04-23T21:10:34.636Z,15.78
2023-04-23T21:13:01.569Z,15.74
2023-04-23T21:15:29.745Z,16.01
2023-04-23T21:17:56.583Z,16.05
2023-04-23T21:20:23.520Z,15.66
2023-04-23T21:22:50.432Z,14.93
2023-04-23T21:25:17.466Z,15.39
2023-04-23T21:27:45.986Z,15.67
2023-04-23T21:30:34.243Z,15.89
2023-04-23T21:33:00.926Z,15.76
2023-04-23T21:35:27.561Z,16.00
2023-04-23T21:37:54.189Z,15.91
2023-04-23T21:40:20.817Z,15.92
2023-04-23T21:42:47.723Z,15.77
2023-04-23T21:45:14.376Z,15.84
2023-04-23T21:47:41.406Z,15.87
2023-04-23T21:50:09.938Z,15.65
2023-04-23T21:52:39.400Z,15.60
2023-04-23T21:55:06.480Z,15.69
2023-04-23T21:57:35.979Z,15.78
2023-04-23T22:00:02.686Z,15.83
2023-04-23T22:02:29.566Z,15.80
2023-04-23T22:04:56.364Z,16.05
2023-04-23T22:07:22.957Z,15.95
2023-04-23T22:09:49.643Z,15.93
2023-04-23T22:12:16.241Z,16.11
2023-04-23T22:14:42.893Z,15.95
2023-04-23T22:17:09.602Z,15.86
2023-04-23T22:19:36.312Z,15.81
2023-04-23T22:22:03.037Z,15.73
2023-04-23T22:24:29.707Z,15.42
2023-04-23T22:26:56.317Z,15.32
2023-04-23T22:29:22.953Z,15.24
2023-04-23T22:31:49.593Z,14.02
2023-04-23T22:34:16.283Z,13.64
2023-04-23T22:36:43.271Z,13.53
2023-04-23T22:39:10.798Z,13.42
2023-04-23T22:41:38.872Z,12.96
2023-04-23T22:44:05.539Z,12.83
2023-04-23T22:46:32.302Z,12.73
2023-04-23T22:49:01.278Z,12.96
2023-04-23T22:51:28.036Z,13.09
2023-04-23T22:53:54.629Z,13.11
2023-04-23T22:56:21.292Z,13.28
2023-04-23T22:58:47.961Z,13.26
2023-04-23T23:01:14.618Z,13.33
2023-04-23T23:03:41.315Z,13.17
2023-04-23T23:06:08.000Z,13.17
2023-04-23T23:08:34.602Z,13.16
2023-04-23T23:11:01.202Z,12.98
2023-04-23T23:13:28.045Z,12.96
2023-04-23T23:15:54.688Z,12.67
2023-04-23T23:18:21.364Z,12.85
2023-04-23T23:20:47.956Z,12.73
2023-04-23T23:23:14.587Z,12.51
2023-04-23T23:25:41.229Z,12.54
2023-04-23T23:28:07.856Z,12.57
2023-04-23T23:30:34.520Z,12.71
2023-04-23T23:33:01.292Z,12.71
2023-04-23T23:35:27.960Z,12.64
2023-04-23T23:37:54.607Z,12.64
2023-04-23T23:40:21.309Z,12.83
2023-04-23T23:42:47.895Z,12.80
2023-04-23T23:45:14.538Z,12.84
2023-04-23T23:47:41.215Z,13.01
2023-04-23T23:50:08.477Z,13.11
2023-04-23T23:52:35.112Z,13.24
2023-04-23T23:55:01.809Z,12.82
2023-04-23T23:57:28.524Z,12.50
2023-04-23T23:59:55.972Z,12.39
